sensor_id;sensor_type;location;lat;lon;timestamp;P1;durP1;ratioP1;P2;durP2;ratioP2
66371;SDS011;53168;51.146;17.120;2023-06-14T00:02:17;9.34;;;9.34;;
66371;SDS011;53168;51.146;17.120;2023-06-14T00:04:56;8.75;;;8.75;;
66371;SDS011;53168;51.146;17.120;2023-06-14T00:08:05;8.81;;;8.81;;
66371;SDS011;53168;51.146;17.120;2023-06-14T00:11:34;8.91;;;8.91;;
66371;SDS011;53168;51.146;17.120;2023-06-14T00:14:12;9.17;;;9.17;;
66371;SDS011;53168;51.146;17.120;2023-06-14T00:16:47;8.60;;;8.60;;
66371;SDS011;53168;51.146;17.120;2023-06-14T00:22:37;8.92;;;8.92;;
66371;SDS011;53168;51.146;17.120;2023-06-14T00:25:15;9.37;;;9.37;;
66371;SDS011;53168;51.146;17.120;2023-06-14T00:27:58;9.04;;;9.04;;
66371;SDS011;53168;51.146;17.120;2023-06-14T00:30:39;8.47;;;8.47;;
66371;SDS011;53168;51.146;17.120;2023-06-14T00:33:31;8.70;;;8.70;;
66371;SDS011;53168;51.146;17.120;2023-06-14T00:36:06;8.72;;;8.72;;
66371;SDS011;53168;51.146;17.120;2023-06-14T00:38:40;9.05;;;9.05;;
66371;SDS011;53168;51.146;17.120;2023-06-14T00:41:14;8.50;;;8.50;;
66371;SDS011;53168;51.146;17.120;2023-06-14T00:43:48;8.94;;;8.94;;
66371;SDS011;53168;51.146;17.120;2023-06-14T00:46:25;8.85;;;8.85;;
66371;SDS011;53168;51.146;17.120;2023-06-14T00:49:01;8.74;;;8.74;;
66371;SDS011;53168;51.146;17.120;2023-06-14T00:51:41;8.64;;;8.64;;
66371;SDS011;53168;51.146;17.120;2023-06-14T00:54:15;8.44;;;8.44;;
66371;SDS011;53168;51.146;17.120;2023-06-14T00:56:49;8.78;;;8.78;;
66371;SDS011;53168;51.146;17.120;2023-06-14T01:07:11;9.30;;;9.30;;
66371;SDS011;53168;51.146;17.120;2023-06-14T01:22:57;9.46;;;9.45;;
66371;SDS011;53168;51.146;17.120;2023-06-14T01:26:05;9.61;;;9.61;;
66371;SDS011;53168;51.146;17.120;2023-06-14T01:29:11;9.83;;;9.83;;
66371;SDS011;53168;51.146;17.120;2023-06-14T01:32:29;10.46;;;10.46;;
66371;SDS011;53168;51.146;17.120;2023-06-14T01:35:01;10.49;;;10.49;;
66371;SDS011;53168;51.146;17.120;2023-06-14T01:37:44;10.51;;;10.51;;
66371;SDS011;53168;51.146;17.120;2023-06-14T01:40:17;10.84;;;10.84;;
66371;SDS011;53168;51.146;17.120;2023-06-14T01:43:25;10.92;;;10.92;;
66371;SDS011;53168;51.146;17.120;2023-06-14T01:51:42;11.76;;;11.74;;
66371;SDS011;53168;51.146;17.120;2023-06-14T01:54:16;11.11;;;11.11;;
66371;SDS011;53168;51.146;17.120;2023-06-14T01:56:50;10.15;;;10.15;;
66371;SDS011;53168;51.146;17.120;2023-06-14T01:59:21;9.88;;;9.88;;
66371;SDS011;53168;51.146;17.120;2023-06-14T02:01:53;9.93;;;9.93;;
66371;SDS011;53168;51.146;17.120;2023-06-14T02:04:23;10.67;;;10.67;;
66371;SDS011;53168;51.146;17.120;2023-06-14T02:06:53;10.25;;;10.25;;
66371;SDS011;53168;51.146;17.120;2023-06-14T02:09:25;10.00;;;10.00;;
66371;SDS011;53168;51.146;17.120;2023-06-14T02:11:55;9.92;;;9.92;;
66371;SDS011;53168;51.146;17.120;2023-06-14T02:14:27;10.63;;;10.63;;
66371;SDS011;53168;51.146;17.120;2023-06-14T02:16:56;10.97;;;10.97;;
66371;SDS011;53168;51.146;17.120;2023-06-14T02:19:28;11.30;;;11.30;;
66371;SDS011;53168;51.146;17.120;2023-06-14T02:22:02;11.81;;;11.81;;
66371;SDS011;53168;51.146;17.120;2023-06-14T02:24:34;11.88;;;11.88;;
66371;SDS011;53168;51.146;17.120;2023-06-14T02:27:08;12.03;;;12.03;;
66371;SDS011;53168;51.146;17.120;2023-06-14T02:29:38;12.32;;;12.32;;
66371;SDS011;53168;51.146;17.120;2023-06-14T02:32:12;12.79;;;12.77;;
66371;SDS011;53168;51.146;17.120;2023-06-14T02:34:50;12.28;;;12.28;;
66371;SDS011;53168;51.146;17.120;2023-06-14T02:37:21;11.06;;;11.06;;
66371;SDS011;53168;51.146;17.120;2023-06-14T02:40:01;10.49;;;10.49;;
66371;SDS011;53168;51.146;17.120;2023-06-14T02:42:34;10.75;;;10.75;;
66371;SDS011;53168;51.146;17.120;2023-06-14T02:45:10;10.49;;;10.49;;
66371;SDS011;53168;51.146;17.120;2023-06-14T02:47:42;10.36;;;10.36;;
66371;SDS011;53168;51.146;17.120;2023-06-14T02:50:15;9.85;;;9.85;;
66371;SDS011;53168;51.146;17.120;2023-06-14T02:52:47;10.11;;;10.11;;
66371;SDS011;53168;51.146;17.120;2023-06-14T02:55:28;10.40;;;10.40;;
66371;SDS011;53168;51.146;17.120;2023-06-14T02:58:11;10.19;;;10.19;;
66371;SDS011;53168;51.146;17.120;2023-06-14T03:00:40;10.48;;;10.48;;
66371;SDS011;53168;51.146;17.120;2023-06-14T03:03:11;10.10;;;10.10;;
66371;SDS011;53168;51.146;17.120;2023-06-14T03:05:50;9.63;;;9.63;;
66371;SDS011;53168;51.146;17.120;2023-06-14T03:08:28;10.17;;;10.16;;
66371;SDS011;53168;51.146;17.120;2023-06-14T03:11:08;9.79;;;9.75;;
66371;SDS011;53168;51.146;17.120;2023-06-14T03:13:39;10.29;;;10.27;;
66371;SDS011;53168;51.146;17.120;2023-06-14T03:16:13;9.92;;;9.92;;
66371;SDS011;53168;51.146;17.120;2023-06-14T03:18:48;9.70;;;9.69;;
66371;SDS011;53168;51.146;17.120;2023-06-14T03:21:22;9.92;;;9.91;;
66371;SDS011;53168;51.146;17.120;2023-06-14T03:24:08;10.20;;;10.20;;
66371;SDS011;53168;51.146;17.120;2023-06-14T03:26:42;10.16;;;10.16;;
66371;SDS011;53168;51.146;17.120;2023-06-14T03:29:12;9.79;;;9.79;;
66371;SDS011;53168;51.146;17.120;2023-06-14T03:31:59;9.64;;;9.63;;
66371;SDS011;53168;51.146;17.120;2023-06-14T03:37:24;9.91;;;9.91;;
66371;SDS011;53168;51.146;17.120;2023-06-14T03:42:59;9.92;;;9.91;;
66371;SDS011;53168;51.146;17.120;2023-06-14T03:45:28;9.67;;;9.67;;
66371;SDS011;53168;51.146;17.120;2023-06-14T03:48:01;9.86;;;9.86;;
66371;SDS011;53168;51.146;17.120;2023-06-14T03:53:25;10.60;;;10.60;;
66371;SDS011;53168;51.146;17.120;2023-06-14T03:56:12;10.01;;;10.01;;
66371;SDS011;53168;51.146;17.120;2023-06-14T03:59:04;9.94;;;9.92;;
66371;SDS011;53168;51.146;17.120;2023-06-14T04:01:57;10.81;;;10.81;;
66371;SDS011;53168;51.146;17.120;2023-06-14T04:04:59;11.70;;;11.65;;
66371;SDS011;53168;51.146;17.120;2023-06-14T04:07:31;10.57;;;10.57;;
66371;SDS011;53168;51.146;17.120;2023-06-14T04:10:09;11.00;;;10.94;;
66371;SDS011;53168;51.146;17.120;2023-06-14T04:12:39;11.62;;;11.61;;
66371;SDS011;53168;51.146;17.120;2023-06-14T04:15:11;11.84;;;11.83;;
66371;SDS011;53168;51.146;17.120;2023-06-14T04:17:44;11.59;;;11.58;;
66371;SDS011;53168;51.146;17.120;2023-06-14T04:20:16;11.72;;;11.65;;
66371;SDS011;53168;51.146;17.120;2023-06-14T04:25:40;12.02;;;11.99;;
66371;SDS011;53168;51.146;17.120;2023-06-14T04:28:13;11.87;;;11.84;;
66371;SDS011;53168;51.146;17.120;2023-06-14T04:30:45;11.67;;;11.67;;
66371;SDS011;53168;51.146;17.120;2023-06-14T04:33:15;11.47;;;11.45;;
66371;SDS011;53168;51.146;17.120;2023-06-14T04:35:46;11.35;;;11.33;;
66371;SDS011;53168;51.146;17.120;2023-06-14T04:56:43;14.36;;;14.23;;
66371;SDS011;53168;51.146;17.120;2023-06-14T04:59:17;15.95;;;15.64;;
66371;SDS011;53168;51.146;17.120;2023-06-14T05:01:52;15.75;;;15.51;;
66371;SDS011;53168;51.146;17.120;2023-06-14T05:04:27;14.55;;;14.41;;
66371;SDS011;53168;51.146;17.120;2023-06-14T05:07:01;15.29;;;14.81;;
66371;SDS011;53168;51.146;17.120;2023-06-14T05:09:37;15.49;;;15.00;;
66371;SDS011;53168;51.146;17.120;2023-06-14T05:12:26;15.84;;;15.38;;
66371;SDS011;53168;51.146;17.120;2023-06-14T05:15:02;15.89;;;15.54;;
66371;SDS011;53168;51.146;17.120;2023-06-14T05:17:46;14.76;;;14.61;;
66371;SDS011;53168;51.146;17.120;2023-06-14T05:20:25;15.40;;;15.12;;
66371;SDS011;53168;51.146;17.120;2023-06-14T05:22:59;15.50;;;15.29;;
66371;SDS011;53168;51.146;17.120;2023-06-14T05:28:32;15.75;;;15.51;;
66371;SDS011;53168;51.146;17.120;2023-06-14T05:31:08;14.69;;;14.20;;
66371;SDS011;53168;51.146;17.120;2023-06-14T05:36:48;17.31;;;16.82;;
66371;SDS011;53168;51.146;17.120;2023-06-14T05:39:30;16.70;;;16.13;;
66371;SDS011;53168;51.146;17.120;2023-06-14T05:42:07;16.47;;;15.95;;
66371;SDS011;53168;51.146;17.120;2023-06-14T05:44:43;16.30;;;15.84;;
66371;SDS011;53168;51.146;17.120;2023-06-14T05:47:18;16.46;;;16.27;;
66371;SDS011;53168;51.146;17.120;2023-06-14T05:49:51;16.19;;;15.93;;
66371;SDS011;53168;51.146;17.120;2023-06-14T05:52:25;16.86;;;16.55;;
66371;SDS011;53168;51.146;17.120;2023-06-14T05:55:02;16.02;;;15.65;;
66371;SDS011;53168;51.146;17.120;2023-06-14T05:57:45;15.27;;;15.12;;
66371;SDS011;53168;51.146;17.120;2023-06-14T06:00:20;15.25;;;15.09;;
66371;SDS011;53168;51.146;17.120;2023-06-14T06:02:54;15.01;;;14.88;;
66371;SDS011;53168;51.146;17.120;2023-06-14T06:05:28;15.28;;;15.06;;
66371;SDS011;53168;51.146;17.120;2023-06-14T06:08:02;15.19;;;15.00;;
66371;SDS011;53168;51.146;17.120;2023-06-14T06:10:37;14.76;;;14.58;;
66371;SDS011;53168;51.146;17.120;2023-06-14T06:13:11;14.99;;;14.75;;
66371;SDS011;53168;51.146;17.120;2023-06-14T06:15:45;15.16;;;15.06;;
66371;SDS011;53168;51.146;17.120;2023-06-14T06:18:19;16.41;;;16.21;;
66371;SDS011;53168;51.146;17.120;2023-06-14T06:20:53;15.50;;;15.25;;
66371;SDS011;53168;51.146;17.120;2023-06-14T06:23:27;15.31;;;15.15;;
66371;SDS011;53168;51.146;17.120;2023-06-14T06:26:00;15.44;;;15.13;;
66371;SDS011;53168;51.146;17.120;2023-06-14T06:28:35;14.06;;;13.71;;
66371;SDS011;53168;51.146;17.120;2023-06-14T06:31:09;14.74;;;14.34;;
66371;SDS011;53168;51.146;17.120;2023-06-14T06:33:43;15.06;;;14.84;;
66371;SDS011;53168;51.146;17.120;2023-06-14T06:36:17;14.91;;;14.78;;
66371;SDS011;53168;51.146;17.120;2023-06-14T06:38:51;14.75;;;14.57;;
66371;SDS011;53168;51.146;17.120;2023-06-14T06:41:27;14.82;;;14.63;;
66371;SDS011;53168;51.146;17.120;2023-06-14T06:44:02;15.81;;;15.55;;
66371;SDS011;53168;51.146;17.120;2023-06-14T06:46:36;15.00;;;14.78;;
66371;SDS011;53168;51.146;17.120;2023-06-14T06:49:12;14.89;;;14.67;;
66371;SDS011;53168;51.146;17.120;2023-06-14T06:54:40;15.55;;;15.21;;
66371;SDS011;53168;51.146;17.120;2023-06-14T06:57:14;14.85;;;14.72;;
66371;SDS011;53168;51.146;17.120;2023-06-14T06:59:49;15.80;;;15.59;;
66371;SDS011;53168;51.146;17.120;2023-06-14T07:02:23;15.56;;;15.18;;
66371;SDS011;53168;51.146;17.120;2023-06-14T07:04:56;15.70;;;15.39;;
66371;SDS011;53168;51.146;17.120;2023-06-14T07:07:30;15.71;;;15.44;;
66371;SDS011;53168;51.146;17.120;2023-06-14T07:10:05;16.04;;;15.72;;
66371;SDS011;53168;51.146;17.120;2023-06-14T07:12:39;15.48;;;15.31;;
66371;SDS011;53168;51.146;17.120;2023-06-14T07:15:13;14.21;;;14.20;;
66371;SDS011;53168;51.146;17.120;2023-06-14T07:17:47;15.03;;;14.94;;
66371;SDS011;53168;51.146;17.120;2023-06-14T07:20:22;15.18;;;15.03;;
66371;SDS011;53168;51.146;17.120;2023-06-14T07:22:57;14.85;;;14.68;;
66371;SDS011;53168;51.146;17.120;2023-06-14T07:25:32;14.93;;;14.76;;
66371;SDS011;53168;51.146;17.120;2023-06-14T07:28:06;14.25;;;14.10;;
66371;SDS011;53168;51.146;17.120;2023-06-14T07:30:39;14.90;;;14.81;;
66371;SDS011;53168;51.146;17.120;2023-06-14T07:33:20;14.80;;;14.65;;
66371;SDS011;53168;51.146;17.120;2023-06-14T07:35:55;15.04;;;14.96;;
66371;SDS011;53168;51.146;17.120;2023-06-14T07:38:29;14.91;;;14.71;;
66371;SDS011;53168;51.146;17.120;2023-06-14T07:41:04;14.63;;;14.43;;
66371;SDS011;53168;51.146;17.120;2023-06-14T07:43:38;15.12;;;14.94;;
66371;SDS011;53168;51.146;17.120;2023-06-14T07:46:11;14.86;;;14.72;;
66371;SDS011;53168;51.146;17.120;2023-06-14T07:48:46;14.88;;;14.71;;
66371;SDS011;53168;51.146;17.120;2023-06-14T07:51:21;14.99;;;14.71;;
66371;SDS011;53168;51.146;17.120;2023-06-14T07:53:54;13.91;;;13.74;;
66371;SDS011;53168;51.146;17.120;2023-06-14T07:56:30;14.14;;;13.97;;
66371;SDS011;53168;51.146;17.120;2023-06-14T07:59:05;13.21;;;13.09;;
66371;SDS011;53168;51.146;17.120;2023-06-14T08:01:39;13.27;;;13.26;;
66371;SDS011;53168;51.146;17.120;2023-06-14T08:04:17;12.22;;;12.18;;
66371;SDS011;53168;51.146;17.120;2023-06-14T08:06:51;11.63;;;11.56;;
66371;SDS011;53168;51.146;17.120;2023-06-14T08:09:25;13.11;;;12.98;;
66371;SDS011;53168;51.146;17.120;2023-06-14T08:12:17;13.03;;;12.91;;
66371;SDS011;53168;51.146;17.120;2023-06-14T08:14:52;12.16;;;12.12;;
66371;SDS011;53168;51.146;17.120;2023-06-14T08:17:49;12.54;;;12.44;;
66371;SDS011;53168;51.146;17.120;2023-06-14T08:20:24;11.98;;;11.98;;
66371;SDS011;53168;51.146;17.120;2023-06-14T08:23:21;12.01;;;11.96;;
66371;SDS011;53168;51.146;17.120;2023-06-14T08:26:00;12.16;;;12.13;;
66371;SDS011;53168;51.146;17.120;2023-06-14T08:28:40;12.18;;;12.06;;
66371;SDS011;53168;51.146;17.120;2023-06-14T08:31:20;13.14;;;12.96;;
66371;SDS011;53168;51.146;17.120;2023-06-14T08:33:55;11.00;;;10.96;;
66371;SDS011;53168;51.146;17.120;2023-06-14T08:36:48;11.33;;;11.29;;
66371;SDS011;53168;51.146;17.120;2023-06-14T08:39:39;12.32;;;12.30;;
66371;SDS011;53168;51.146;17.120;2023-06-14T08:42:17;12.63;;;12.53;;
66371;SDS011;53168;51.146;17.120;2023-06-14T08:45:06;12.32;;;12.29;;
66371;SDS011;53168;51.146;17.120;2023-06-14T08:47:54;11.69;;;11.67;;
66371;SDS011;53168;51.146;17.120;2023-06-14T08:50:33;10.79;;;10.78;;
66371;SDS011;53168;51.146;17.120;2023-06-14T08:53:12;11.03;;;10.88;;
66371;SDS011;53168;51.146;17.120;2023-06-14T08:56:07;10.28;;;10.20;;
66371;SDS011;53168;51.146;17.120;2023-06-14T08:58:56;10.64;;;10.57;;
66371;SDS011;53168;51.146;17.120;2023-06-14T09:01:34;10.57;;;10.46;;
66371;SDS011;53168;51.146;17.120;2023-06-14T09:04:43;10.26;;;10.26;;
66371;SDS011;53168;51.146;17.120;2023-06-14T09:07:31;8.28;;;8.28;;
66371;SDS011;53168;51.146;17.120;2023-06-14T09:10:45;7.69;;;7.68;;
66371;SDS011;53168;51.146;17.120;2023-06-14T09:13:21;8.58;;;8.58;;
66371;SDS011;53168;51.146;17.120;2023-06-14T09:16:05;7.78;;;7.78;;
66371;SDS011;53168;51.146;17.120;2023-06-14T09:18:43;8.92;;;8.92;;
66371;SDS011;53168;51.146;17.120;2023-06-14T09:21:29;8.32;;;8.29;;
66371;SDS011;53168;51.146;17.120;2023-06-14T09:24:31;8.97;;;8.92;;
66371;SDS011;53168;51.146;17.120;2023-06-14T09:27:18;8.12;;;8.12;;
66371;SDS011;53168;51.146;17.120;2023-06-14T09:29:53;8.33;;;8.33;;
66371;SDS011;53168;51.146;17.120;2023-06-14T09:32:31;7.95;;;7.95;;
66371;SDS011;53168;51.146;17.120;2023-06-14T09:39:11;8.38;;;8.38;;
66371;SDS011;53168;51.146;17.120;2023-06-14T09:41:52;8.15;;;8.15;;
66371;SDS011;53168;51.146;17.120;2023-06-14T09:44:29;7.36;;;7.36;;
66371;SDS011;53168;51.146;17.120;2023-06-14T09:47:04;7.65;;;7.65;;
66371;SDS011;53168;51.146;17.120;2023-06-14T09:49:40;8.17;;;8.16;;
66371;SDS011;53168;51.146;17.120;2023-06-14T09:52:18;8.34;;;8.33;;
66371;SDS011;53168;51.146;17.120;2023-06-14T09:54:56;8.63;;;8.63;;
66371;SDS011;53168;51.146;17.120;2023-06-14T09:57:50;8.57;;;8.57;;
66371;SDS011;53168;51.146;17.120;2023-06-14T10:01:05;6.99;;;6.99;;
66371;SDS011;53168;51.146;17.120;2023-06-14T10:04:00;7.12;;;7.12;;
66371;SDS011;53168;51.146;17.120;2023-06-14T10:06:41;7.55;;;7.55;;
66371;SDS011;53168;51.146;17.120;2023-06-14T10:16:34;6.54;;;6.54;;
66371;SDS011;53168;51.146;17.120;2023-06-14T10:20:25;6.55;;;6.55;;
66371;SDS011;53168;51.146;17.120;2023-06-14T10:23:48;6.70;;;6.70;;
66371;SDS011;53168;51.146;17.120;2023-06-14T10:26:24;6.38;;;6.38;;
66371;SDS011;53168;51.146;17.120;2023-06-14T10:29:00;6.67;;;6.67;;
66371;SDS011;53168;51.146;17.120;2023-06-14T10:31:43;6.79;;;6.79;;
66371;SDS011;53168;51.146;17.120;2023-06-14T10:34:25;6.13;;;6.13;;
66371;SDS011;53168;51.146;17.120;2023-06-14T10:37:02;6.45;;;6.45;;
66371;SDS011;53168;51.146;17.120;2023-06-14T10:39:44;5.50;;;5.50;;
66371;SDS011;53168;51.146;17.120;2023-06-14T10:42:19;5.79;;;5.79;;
66371;SDS011;53168;51.146;17.120;2023-06-14T10:44:58;5.58;;;5.58;;
66371;SDS011;53168;51.146;17.120;2023-06-14T10:47:33;6.39;;;6.39;;
66371;SDS011;53168;51.146;17.120;2023-06-14T10:50:09;6.02;;;6.02;;
66371;SDS011;53168;51.146;17.120;2023-06-14T10:52:45;5.63;;;5.63;;
66371;SDS011;53168;51.146;17.120;2023-06-14T10:55:19;4.78;;;4.78;;
66371;SDS011;53168;51.146;17.120;2023-06-14T10:57:56;4.91;;;4.91;;
66371;SDS011;53168;51.146;17.120;2023-06-14T11:00:39;5.13;;;5.13;;
66371;SDS011;53168;51.146;17.120;2023-06-14T11:03:50;5.12;;;5.12;;
66371;SDS011;53168;51.146;17.120;2023-06-14T11:12:31;5.80;;;5.80;;
66371;SDS011;53168;51.146;17.120;2023-06-14T11:15:07;5.39;;;5.39;;
66371;SDS011;53168;51.146;17.120;2023-06-14T11:17:51;5.47;;;5.47;;
66371;SDS011;53168;51.146;17.120;2023-06-14T11:20:29;5.14;;;5.14;;
66371;SDS011;53168;51.146;17.120;2023-06-14T11:23:05;5.16;;;5.16;;
66371;SDS011;53168;51.146;17.120;2023-06-14T11:25:40;4.75;;;4.75;;
66371;SDS011;53168;51.146;17.120;2023-06-14T11:28:14;4.56;;;4.56;;
66371;SDS011;53168;51.146;17.120;2023-06-14T11:36:51;5.22;;;5.22;;
66371;SDS011;53168;51.146;17.120;2023-06-14T11:39:47;4.75;;;4.75;;
66371;SDS011;53168;51.146;17.120;2023-06-14T11:42:24;5.01;;;5.01;;
66371;SDS011;53168;51.146;17.120;2023-06-14T11:45:04;5.31;;;5.31;;
66371;SDS011;53168;51.146;17.120;2023-06-14T11:47:41;5.57;;;5.57;;
66371;SDS011;53168;51.146;17.120;2023-06-14T11:50:15;5.00;;;5.00;;
66371;SDS011;53168;51.146;17.120;2023-06-14T11:52:59;5.23;;;5.23;;
66371;SDS011;53168;51.146;17.120;2023-06-14T11:55:37;5.46;;;5.46;;
66371;SDS011;53168;51.146;17.120;2023-06-14T11:58:17;5.04;;;5.04;;
66371;SDS011;53168;51.146;17.120;2023-06-14T12:00:52;4.68;;;4.68;;
66371;SDS011;53168;51.146;17.120;2023-06-14T12:03:27;5.48;;;5.48;;
66371;SDS011;53168;51.146;17.120;2023-06-14T12:06:05;5.22;;;5.22;;
66371;SDS011;53168;51.146;17.120;2023-06-14T12:08:42;6.05;;;6.05;;
66371;SDS011;53168;51.146;17.120;2023-06-14T12:11:18;5.74;;;5.74;;
66371;SDS011;53168;51.146;17.120;2023-06-14T12:13:53;6.01;;;6.01;;
66371;SDS011;53168;51.146;17.120;2023-06-14T12:16:39;6.27;;;6.27;;
66371;SDS011;53168;51.146;17.120;2023-06-14T12:19:17;6.85;;;6.85;;
66371;SDS011;53168;51.146;17.120;2023-06-14T12:21:56;6.83;;;6.83;;
66371;SDS011;53168;51.146;17.120;2023-06-14T12:24:35;7.10;;;7.10;;
66371;SDS011;53168;51.146;17.120;2023-06-14T12:27:10;7.37;;;7.37;;
66371;SDS011;53168;51.146;17.120;2023-06-14T12:29:59;7.58;;;7.58;;
66371;SDS011;53168;51.146;17.120;2023-06-14T12:32:37;7.78;;;7.78;;
66371;SDS011;53168;51.146;17.120;2023-06-14T12:35:13;7.97;;;7.97;;
66371;SDS011;53168;51.146;17.120;2023-06-14T12:37:48;7.83;;;7.83;;
66371;SDS011;53168;51.146;17.120;2023-06-14T12:40:24;7.09;;;7.09;;
66371;SDS011;53168;51.146;17.120;2023-06-14T12:42:58;7.21;;;7.21;;
66371;SDS011;53168;51.146;17.120;2023-06-14T12:45:40;6.96;;;6.96;;
66371;SDS011;53168;51.146;17.120;2023-06-14T12:48:14;8.04;;;8.04;;
66371;SDS011;53168;51.146;17.120;2023-06-14T12:50:49;8.16;;;8.16;;
66371;SDS011;53168;51.146;17.120;2023-06-14T12:53:23;7.97;;;7.97;;
66371;SDS011;53168;51.146;17.120;2023-06-14T12:55:57;7.73;;;7.73;;
66371;SDS011;53168;51.146;17.120;2023-06-14T12:58:37;7.43;;;7.43;;
66371;SDS011;53168;51.146;17.120;2023-06-14T13:01:14;7.87;;;7.87;;
66371;SDS011;53168;51.146;17.120;2023-06-14T13:03:50;7.54;;;7.54;;
66371;SDS011;53168;51.146;17.120;2023-06-14T13:06:30;7.44;;;7.44;;
66371;SDS011;53168;51.146;17.120;2023-06-14T13:09:04;7.31;;;7.31;;
66371;SDS011;53168;51.146;17.120;2023-06-14T13:11:40;6.97;;;6.97;;
66371;SDS011;53168;51.146;17.120;2023-06-14T13:14:16;7.39;;;7.39;;
66371;SDS011;53168;51.146;17.120;2023-06-14T13:16:54;6.34;;;6.34;;
66371;SDS011;53168;51.146;17.120;2023-06-14T13:19:31;6.79;;;6.79;;
66371;SDS011;53168;51.146;17.120;2023-06-14T13:22:05;6.56;;;6.56;;
66371;SDS011;53168;51.146;17.120;2023-06-14T13:24:40;6.41;;;6.41;;
66371;SDS011;53168;51.146;17.120;2023-06-14T13:27:15;6.99;;;6.99;;
66371;SDS011;53168;51.146;17.120;2023-06-14T13:29:50;6.16;;;6.16;;
66371;SDS011;53168;51.146;17.120;2023-06-14T13:32:24;7.00;;;7.00;;
66371;SDS011;53168;51.146;17.120;2023-06-14T13:34:58;6.39;;;6.39;;
66371;SDS011;53168;51.146;17.120;2023-06-14T13:37:36;6.82;;;6.82;;
66371;SDS011;53168;51.146;17.120;2023-06-14T13:40:11;7.23;;;7.23;;
66371;SDS011;53168;51.146;17.120;2023-06-14T13:42:47;7.24;;;7.24;;
66371;SDS011;53168;51.146;17.120;2023-06-14T13:45:23;6.11;;;6.11;;
66371;SDS011;53168;51.146;17.120;2023-06-14T13:47:57;6.87;;;6.87;;
66371;SDS011;53168;51.146;17.120;2023-06-14T13:50:32;5.13;;;5.13;;
66371;SDS011;53168;51.146;17.120;2023-06-14T13:53:06;5.06;;;5.06;;
66371;SDS011;53168;51.146;17.120;2023-06-14T13:55:45;4.54;;;4.54;;
66371;SDS011;53168;51.146;17.120;2023-06-14T13:58:19;4.27;;;4.27;;
66371;SDS011;53168;51.146;17.120;2023-06-14T14:00:55;4.25;;;4.25;;
66371;SDS011;53168;51.146;17.120;2023-06-14T14:03:31;5.08;;;5.08;;
66371;SDS011;53168;51.146;17.120;2023-06-14T14:06:05;4.46;;;4.46;;
66371;SDS011;53168;51.146;17.120;2023-06-14T14:08:39;4.63;;;4.63;;
66371;SDS011;53168;51.146;17.120;2023-06-14T14:11:32;5.07;;;5.07;;
66371;SDS011;53168;51.146;17.120;2023-06-14T14:14:34;4.80;;;4.80;;
66371;SDS011;53168;51.146;17.120;2023-06-14T14:17:08;5.03;;;5.03;;
66371;SDS011;53168;51.146;17.120;2023-06-14T14:22:31;5.48;;;5.48;;
66371;SDS011;53168;51.146;17.120;2023-06-14T14:25:06;5.18;;;5.18;;
66371;SDS011;53168;51.146;17.120;2023-06-14T14:30:51;5.93;;;5.93;;
66371;SDS011;53168;51.146;17.120;2023-06-14T14:33:33;5.71;;;5.71;;
66371;SDS011;53168;51.146;17.120;2023-06-14T14:36:13;6.22;;;6.22;;
66371;SDS011;53168;51.146;17.120;2023-06-14T14:38:49;6.20;;;6.20;;
66371;SDS011;53168;51.146;17.120;2023-06-14T14:41:33;5.99;;;5.99;;
66371;SDS011;53168;51.146;17.120;2023-06-14T14:44:15;6.94;;;6.94;;
66371;SDS011;53168;51.146;17.120;2023-06-14T14:46:50;7.37;;;7.37;;
66371;SDS011;53168;51.146;17.120;2023-06-14T14:49:26;6.72;;;6.72;;
66371;SDS011;53168;51.146;17.120;2023-06-14T14:52:18;6.21;;;6.21;;
66371;SDS011;53168;51.146;17.120;2023-06-14T14:54:59;7.22;;;7.22;;
66371;SDS011;53168;51.146;17.120;2023-06-14T14:57:35;6.59;;;6.59;;
66371;SDS011;53168;51.146;17.120;2023-06-14T15:00:10;7.25;;;7.25;;
66371;SDS011;53168;51.146;17.120;2023-06-14T15:02:52;6.93;;;6.93;;
66371;SDS011;53168;51.146;17.120;2023-06-14T15:05:27;7.36;;;7.36;;
66371;SDS011;53168;51.146;17.120;2023-06-14T15:08:02;7.38;;;7.38;;
66371;SDS011;53168;51.146;17.120;2023-06-14T15:10:44;7.58;;;7.58;;
66371;SDS011;53168;51.146;17.120;2023-06-14T15:13:36;7.29;;;7.29;;
66371;SDS011;53168;51.146;17.120;2023-06-14T15:16:13;7.76;;;7.76;;
66371;SDS011;53168;51.146;17.120;2023-06-14T15:19:01;6.91;;;6.91;;
66371;SDS011;53168;51.146;17.120;2023-06-14T15:21:56;7.72;;;7.72;;
66371;SDS011;53168;51.146;17.120;2023-06-14T15:24:49;7.42;;;7.42;;
66371;SDS011;53168;51.146;17.120;2023-06-14T15:27:23;8.04;;;8.04;;
66371;SDS011;53168;51.146;17.120;2023-06-14T15:30:39;7.59;;;7.59;;
66371;SDS011;53168;51.146;17.120;2023-06-14T15:34:14;7.34;;;7.34;;
66371;SDS011;53168;51.146;17.120;2023-06-14T15:37:02;6.82;;;6.82;;
66371;SDS011;53168;51.146;17.120;2023-06-14T15:44:29;7.71;;;7.71;;
66371;SDS011;53168;51.146;17.120;2023-06-14T15:47:52;7.99;;;7.99;;
66371;SDS011;53168;51.146;17.120;2023-06-14T15:50:30;7.67;;;7.67;;
66371;SDS011;53168;51.146;17.120;2023-06-14T15:53:42;7.90;;;7.90;;
66371;SDS011;53168;51.146;17.120;2023-06-14T15:57:14;7.67;;;7.67;;
66371;SDS011;53168;51.146;17.120;2023-06-14T16:00:21;6.60;;;6.60;;
66371;SDS011;53168;51.146;17.120;2023-06-14T16:03:13;6.40;;;6.40;;
66371;SDS011;53168;51.146;17.120;2023-06-14T16:05:49;6.39;;;6.39;;
66371;SDS011;53168;51.146;17.120;2023-06-14T16:08:31;6.71;;;6.71;;
66371;SDS011;53168;51.146;17.120;2023-06-14T16:11:35;6.80;;;6.80;;
66371;SDS011;53168;51.146;17.120;2023-06-14T16:14:19;7.78;;;7.78;;
66371;SDS011;53168;51.146;17.120;2023-06-14T16:17:00;6.79;;;6.79;;
66371;SDS011;53168;51.146;17.120;2023-06-14T16:22:55;7.69;;;7.69;;
66371;SDS011;53168;51.146;17.120;2023-06-14T16:25:37;7.64;;;7.64;;
66371;SDS011;53168;51.146;17.120;2023-06-14T16:28:12;6.00;;;6.00;;
66371;SDS011;53168;51.146;17.120;2023-06-14T16:30:58;6.95;;;6.95;;
66371;SDS011;53168;51.146;17.120;2023-06-14T16:33:42;7.07;;;7.07;;
66371;SDS011;53168;51.146;17.120;2023-06-14T16:36:30;6.37;;;6.37;;
66371;SDS011;53168;51.146;17.120;2023-06-14T16:39:33;6.09;;;6.09;;
66371;SDS011;53168;51.146;17.120;2023-06-14T16:42:12;6.73;;;6.73;;
66371;SDS011;53168;51.146;17.120;2023-06-14T16:44:54;7.43;;;7.43;;
66371;SDS011;53168;51.146;17.120;2023-06-14T16:47:40;7.37;;;7.37;;
66371;SDS011;53168;51.146;17.120;2023-06-14T16:50:28;7.02;;;7.02;;
66371;SDS011;53168;51.146;17.120;2023-06-14T16:53:26;8.17;;;8.17;;
66371;SDS011;53168;51.146;17.120;2023-06-14T16:56:30;8.14;;;8.14;;
66371;SDS011;53168;51.146;17.120;2023-06-14T16:59:24;8.91;;;8.91;;
66371;SDS011;53168;51.146;17.120;2023-06-14T17:02:55;8.61;;;8.61;;
66371;SDS011;53168;51.146;17.120;2023-06-14T17:05:35;9.04;;;9.01;;
66371;SDS011;53168;51.146;17.120;2023-06-14T17:08:45;8.86;;;8.86;;
66371;SDS011;53168;51.146;17.120;2023-06-14T17:11:23;7.60;;;7.60;;
66371;SDS011;53168;51.146;17.120;2023-06-14T17:13:56;7.20;;;7.20;;
66371;SDS011;53168;51.146;17.120;2023-06-14T17:16:31;6.67;;;6.66;;
66371;SDS011;53168;51.146;17.120;2023-06-14T17:19:05;6.82;;;6.82;;
66371;SDS011;53168;51.146;17.120;2023-06-14T17:21:40;6.69;;;6.69;;
66371;SDS011;53168;51.146;17.120;2023-06-14T17:24:18;6.51;;;6.51;;
66371;SDS011;53168;51.146;17.120;2023-06-14T17:27:02;6.11;;;6.11;;